Strona główna
METAR-TAF:

METAR-TAF

Lotnisko :

Koksijde, Belgia

Szerokość geograficzna: 51-05N, Długość geograficzna: 002-39E, wysokość: 4 m

Aktualna obserwacja pogody

Raport powstał 26 minut temu, godzina 10:25 UTC
Wiatr 7 kt od wschód
Temperatura 19°C
Wilgotność 52%
Ciśnienie 1026 hPa
Widzialność: 6000 m

METAR: EBFN 101025Z AUTO 09007KT 6000 NCD 19/09 Q1026 WHT

czas: 12:51 (10:51 UTC)

Prognoza

Raport powstał 2 godziny i 10 minut temu, godzina 08:41 UTC
Prognoza ważna od 10 godzina 10 UTC do 10 godzina 19 UTC
Wiatr 8 kt od wschód
Widzialność: 8000 m
Mało chmury na wysokości 28000 ft
Przejściowo
od 10 godzina 10 UTC do 10 godzina 12 UTC
Widzialność: 7000 m
Stopniowe zmiany
od 10 godzina 11 UTC do 10 godzina 13 UTC
Wiatr 10 kt od północny wschód
Widzialność 10 km lub więcej

TAF: EBFN 100841Z 1010/1019 08008KT 8000 FEW280 TEMPO 1010/1012 7000 BECMG 1011/1013 04010KT 9999

Obserwacja i prognoza pogody dla ponad 4000 lotnisk (raport METAR i TAF).

Dostępne stacje oznaczono żółtymi i czerwonymi punktami na mapie.

Najedź kursorem aby zobaczyć nazwę stacji.

Kliknij aby zobaczyć obserwacje i prognozy pogody.

Aby zmienić mapę: kliknij na zielony przycisk z czarnym krzyżykiem, aby powiększyć; na zielony przycisk z myślnikiem, aby pomniejszyć; na zielone strzałki, aby przejść do map sąsiednich.


METAR-TAF: